Time;durP1;ratioP1;P1;durP2;ratioP2;P2;SDS_P1;SDS_P2;PMS_P1;PMS_P2;Temp;Humidity;BMP_temperature;BMP_pressure;BME280_temperature;BME280_humidity;BME280_pressure;Samples;Min_cycle;Max_cycle;Signal;HPM_P1;HPM_P2
2021/10/22 00:01:00;;;;;;;3.13;1.13;;;11.30;99.90;;;;;;5033303;28;20030;-78
2021/10/22 00:03:27;;;;;;;5.00;1.20;;;11.30;99.90;;;;;;5002077;28;20104;-78
2021/10/22 00:05:52;;;;;;;3.08;1.00;;;11.30;99.90;;;;;;4995944;28;20033;-78
2021/10/22 00:08:18;;;;;;;3.45;1.50;;;11.20;99.90;;;;;;4996072;28;20038;-77
2021/10/22 00:10:44;;;;;;;4.07;1.55;;;11.20;99.90;;;;;;5016837;28;20040;-77
2021/10/22 00:13:10;;;;;;;3.67;1.02;;;11.20;99.90;;;;;;5033104;28;20389;-77
2021/10/22 00:15:36;;;;;;;2.92;1.17;;;11.20;99.90;;;;;;5032896;28;20110;-77
2021/10/22 00:18:02;;;;;;;4.90;1.60;;;11.30;99.90;;;;;;5032961;28;20038;-77
2021/10/22 00:20:27;;;;;;;5.10;1.35;;;11.20;99.90;;;;;;5015108;28;20052;-77
2021/10/22 00:22:53;;;;;;;7.05;1.60;;;11.20;99.90;;;;;;5032960;28;20049;-77
2021/10/22 00:25:19;;;;;;;5.85;1.15;;;11.20;99.90;;;;;;5034772;28;20025;-77
2021/10/22 00:27:46;;;;;;;10.57;1.73;;;11.20;99.90;;;;;;5052999;28;20033;-77
2021/10/22 00:30:11;;;;;;;4.15;1.02;;;11.10;99.90;;;;;;5040657;28;20047;-76
2021/10/22 00:32:38;;;;;;;5.10;1.40;;;11.00;99.90;;;;;;5029747;28;20525;-76
2021/10/22 00:35:04;;;;;;;5.03;1.92;;;10.90;99.90;;;;;;5012304;28;20036;-77
2021/10/22 00:37:30;;;;;;;3.80;1.07;;;10.80;99.90;;;;;;5029662;28;20065;-76
2021/10/22 00:39:55;;;;;;;4.07;1.30;;;10.70;99.90;;;;;;5029953;28;20072;-77
2021/10/22 00:42:22;;;;;;;7.00;1.53;;;10.60;99.90;;;;;;5029882;28;20060;-76
2021/10/22 00:44:50;;;;;;;5.80;1.63;;;10.50;99.90;;;;;;5030098;28;20457;-76
2021/10/22 00:47:16;;;;;;;6.30;1.40;;;10.40;99.90;;;;;;5029745;28;20037;-76
2021/10/22 00:49:42;;;;;;;7.70;1.50;;;10.30;99.90;;;;;;5029808;28;20028;-76
2021/10/22 00:52:08;;;;;;;5.47;1.60;;;10.30;99.90;;;;;;5029745;28;20524;-76
2021/10/22 00:54:35;;;;;;;7.23;1.70;;;10.10;99.90;;;;;;5029984;28;20025;-76
2021/10/22 00:57:01;;;;;;;6.67;1.33;;;10.00;99.90;;;;;;5031543;28;20485;-76
2021/10/22 00:59:27;;;;;;;6.03;1.47;;;9.90;99.90;;;;;;5033903;28;20449;-76
2021/10/22 01:01:53;;;;;;;5.37;1.70;;;9.80;99.90;;;;;;5033723;28;20064;-76
2021/10/22 01:04:19;;;;;;;7.07;1.87;;;9.70;99.90;;;;;;5033870;28;20063;-76
2021/10/22 01:06:44;;;;;;;8.33;2.10;;;9.60;99.90;;;;;;5015943;28;20026;-76
2021/10/22 01:09:11;;;;;;;5.23;1.80;;;9.50;99.90;;;;;;5033768;28;20059;-76
2021/10/22 01:11:38;;;;;;;8.50;1.70;;;9.50;99.90;;;;;;5015692;28;20029;-76
2021/10/22 01:14:05;;;;;;;9.23;2.10;;;9.40;99.90;;;;;;5033422;28;20071;-76
2021/10/22 01:16:31;;;;;;;7.10;1.90;;;9.30;99.90;;;;;;5015810;28;20386;-76
2021/10/22 01:18:57;;;;;;;8.37;2.20;;;9.30;99.90;;;;;;5033091;28;20029;-76
2021/10/22 01:21:23;;;;;;;5.87;1.97;;;9.20;99.90;;;;;;5033366;28;20030;-76
2021/10/22 01:23:48;;;;;;;7.47;2.30;;;9.20;99.90;;;;;;5015753;28;20475;-76
2021/10/22 01:26:14;;;;;;;8.97;2.37;;;9.10;99.90;;;;;;5015572;28;20072;-76
2021/10/22 01:28:40;;;;;;;8.33;1.90;;;9.10;99.90;;;;;;5033372;28;20060;-76
2021/10/22 01:31:06;;;;;;;4.53;1.70;;;9.10;99.90;;;;;;5033270;28;20018;-76
2021/10/22 01:33:32;;;;;;;7.40;1.70;;;9.10;99.90;;;;;;5033290;28;20399;-76
2021/10/22 01:35:58;;;;;;;3.10;1.40;;;9.10;99.90;;;;;;5033093;28;20116;-76
2021/10/22 01:38:25;;;;;;;4.87;1.40;;;9.10;99.90;;;;;;5015213;28;20137;-76
2021/10/22 01:40:54;;;;;;;4.77;1.70;;;9.10;99.90;;;;;;5033105;28;20021;-76
2021/10/22 01:43:21;;;;;;;6.53;1.30;;;9.10;99.90;;;;;;5019527;28;20422;-76
2021/10/22 01:45:47;;;;;;;2.83;1.10;;;9.10;99.90;;;;;;5032969;28;20041;-76
2021/10/22 01:48:13;;;;;;;3.90;1.20;;;9.10;99.90;;;;;;5032890;28;20460;-76
2021/10/22 01:50:39;;;;;;;3.07;1.13;;;9.10;99.90;;;;;;5033006;28;20052;-76
2021/10/22 01:53:05;;;;;;;5.23;1.90;;;9.00;99.90;;;;;;5033059;28;20041;-76
2021/10/22 01:55:31;;;;;;;4.03;1.40;;;9.00;99.90;;;;;;5015007;28;20401;-76
2021/10/22 01:57:57;;;;;;;3.07;1.10;;;9.00;99.90;;;;;;5032899;28;20112;-77
2021/10/22 02:00:23;;;;;;;5.77;1.47;;;9.00;99.90;;;;;;5032649;28;20437;-78
2021/10/22 02:02:48;;;;;;;6.33;1.30;;;9.00;99.90;;;;;;5014991;28;20025;-77
2021/10/22 02:05:14;;;;;;;4.07;1.70;;;9.10;99.90;;;;;;5015070;28;20101;-77
2021/10/22 02:07:40;;;;;;;5.57;1.40;;;9.00;99.90;;;;;;5032501;28;20021;-77
2021/10/22 02:10:06;;;;;;;4.83;1.20;;;9.00;99.90;;;;;;5014769;28;20029;-77
2021/10/22 02:12:32;;;;;;;4.53;1.27;;;8.90;99.90;;;;;;5014972;28;20481;-77
2021/10/22 02:14:57;;;;;;;5.53;2.10;;;9.00;99.90;;;;;;5032913;28;20025;-77
2021/10/22 02:17:23;;;;;;;3.87;1.40;;;9.00;99.90;;;;;;5032439;28;20450;-77
2021/10/22 02:19:49;;;;;;;6.90;1.50;;;8.90;99.90;;;;;;5032351;28;20017;-77
2021/10/22 02:22:15;;;;;;;4.17;1.30;;;8.90;99.90;;;;;;5032203;28;20472;-77
2021/10/22 02:24:40;;;;;;;5.30;1.20;;;8.90;99.90;;;;;;5030646;28;20025;-77
2021/10/22 02:27:06;;;;;;;4.73;1.30;;;8.90;99.90;;;;;;5032268;28;20072;-77
2021/10/22 02:29:33;;;;;;;5.03;1.30;;;8.90;99.90;;;;;;5024774;28;20033;-77
2021/10/22 02:31:58;;;;;;;5.30;1.40;;;9.00;99.90;;;;;;5031991;28;20044;-76
2021/10/22 02:34:24;;;;;;;6.57;1.20;;;8.90;99.90;;;;;;5031874;28;20117;-76
2021/10/22 02:36:50;;;;;;;1.57;1.00;;;9.00;99.90;;;;;;5034149;28;20036;-77
2021/10/22 02:39:16;;;;;;;3.83;1.83;;;8.90;99.90;;;;;;5039589;28;20483;-76
2021/10/22 02:41:42;;;;;;;2.97;1.57;;;8.80;99.90;;;;;;5030265;28;20389;-77
2021/10/22 02:44:08;;;;;;;2.67;1.30;;;8.80;99.90;;;;;;5031772;28;20025;-77
2021/10/22 02:46:33;;;;;;;2.87;1.13;;;8.80;99.90;;;;;;5031859;28;20487;-77
2021/10/22 02:48:59;;;;;;;2.70;1.30;;;8.80;99.90;;;;;;5032077;28;20026;-76
2021/10/22 02:51:25;;;;;;;3.13;1.37;;;8.80;99.90;;;;;;5031557;28;20493;-77
2021/10/22 02:53:51;;;;;;;3.50;1.20;;;8.90;99.90;;;;;;5031698;28;20018;-77
2021/10/22 02:56:16;;;;;;;2.33;1.20;;;8.80;99.90;;;;;;5031821;28;20030;-77
2021/10/22 02:58:42;;;;;;;2.27;1.40;;;8.80;99.90;;;;;;5031389;28;20037;-77
2021/10/22 03:01:08;;;;;;;3.80;1.50;;;8.80;99.90;;;;;;5031723;28;20026;-76
2021/10/22 03:03:34;;;;;;;3.30;1.67;;;8.80;99.90;;;;;;5031424;28;20109;-77
2021/10/22 03:05:59;;;;;;;2.30;1.60;;;8.70;99.90;;;;;;5031536;28;20135;-77
2021/10/22 03:08:25;;;;;;;3.00;1.70;;;8.70;99.90;;;;;;5031616;28;20415;-76
2021/10/22 03:10:51;;;;;;;2.33;1.70;;;8.70;99.90;;;;;;5031211;28;20018;-76
2021/10/22 03:13:16;;;;;;;3.83;1.80;;;8.60;99.90;;;;;;5031462;28;20029;-76
2021/10/22 03:15:42;;;;;;;4.93;1.73;;;8.60;99.90;;;;;;5030012;28;20025;-77
2021/10/22 03:18:08;;;;;;;3.07;1.80;;;8.60;99.90;;;;;;5031083;28;20038;-77
2021/10/22 03:20:35;;;;;;;3.27;1.90;;;8.50;99.90;;;;;;5028989;28;20025;-77
2021/10/22 03:23:00;;;;;;;2.93;1.80;;;8.50;99.90;;;;;;5031514;28;20020;-77
2021/10/22 03:25:26;;;;;;;4.13;1.80;;;8.50;99.90;;;;;;5031371;28;20153;-77
2021/10/22 03:27:53;;;;;;;2.93;1.97;;;8.50;99.90;;;;;;5031067;28;20022;-77
2021/10/22 03:30:19;;;;;;;3.63;1.80;;;8.40;99.90;;;;;;5031184;28;20032;-77
2021/10/22 03:32:44;;;;;;;3.47;1.60;;;8.40;99.90;;;;;;5030758;28;21670;-77
2021/10/22 03:35:10;;;;;;;4.07;2.30;;;8.40;99.90;;;;;;5030946;28;20025;-77
2021/10/22 03:37:36;;;;;;;2.33;1.77;;;8.40;99.90;;;;;;5030875;28;20744;-77
2021/10/22 03:40:02;;;;;;;3.43;2.10;;;8.40;99.90;;;;;;5030947;28;20025;-77
2021/10/22 03:42:29;;;;;;;3.03;1.80;;;8.40;99.90;;;;;;5029675;28;20053;-76
2021/10/22 03:44:55;;;;;;;4.13;1.93;;;8.40;99.90;;;;;;5030922;28;20047;-76
2021/10/22 03:47:20;;;;;;;2.77;1.63;;;8.40;99.90;;;;;;5030614;28;20041;-76
2021/10/22 03:49:46;;;;;;;3.17;1.90;;;8.40;99.90;;;;;;5030571;28;20025;-76
2021/10/22 03:52:12;;;;;;;3.13;2.43;;;8.40;99.90;;;;;;5030699;28;20029;-76
2021/10/22 03:54:38;;;;;;;3.80;2.50;;;8.30;99.90;;;;;;5030606;28;20021;-77
2021/10/22 03:57:03;;;;;;;3.07;2.43;;;8.30;99.90;;;;;;5030666;28;20075;-77
2021/10/22 03:59:30;;;;;;;3.03;2.40;;;8.20;99.90;;;;;;5030428;28;20044;-76
2021/10/22 04:01:55;;;;;;;3.20;2.50;;;8.20;99.90;;;;;;5030275;28;20014;-77
2021/10/22 04:04:27;;;;;;;3.30;2.80;;;8.20;99.90;;;;;;5030595;28;20571;-77
2021/10/22 04:06:53;;;;;;;4.77;2.60;;;8.10;99.90;;;;;;5030371;28;20013;-76
2021/10/22 04:09:18;;;;;;;4.67;2.67;;;8.00;99.90;;;;;;5029182;28;20367;-77
2021/10/22 04:11:44;;;;;;;4.07;2.50;;;8.00;99.90;;;;;;5028992;28;20382;-77
2021/10/22 04:14:11;;;;;;;4.23;2.20;;;7.90;99.90;;;;;;5030378;28;20025;-76
2021/10/22 04:16:36;;;;;;;3.33;2.30;;;7.90;99.90;;;;;;5029000;28;20080;-76
2021/10/22 04:19:03;;;;;;;5.13;2.27;;;7.80;99.90;;;;;;5030079;28;20478;-76
2021/10/22 04:21:28;;;;;;;6.03;2.83;;;7.80;99.90;;;;;;5029517;28;20025;-77
2021/10/22 04:23:54;;;;;;;5.27;2.40;;;7.70;99.90;;;;;;5029718;28;20496;-76
2021/10/22 04:26:19;;;;;;;4.00;2.10;;;7.70;99.90;;;;;;5029684;28;20033;-76
2021/10/22 04:28:46;;;;;;;2.83;2.27;;;7.60;99.90;;;;;;5027100;28;20021;-76
2021/10/22 04:31:11;;;;;;;4.83;2.13;;;7.60;99.90;;;;;;5006075;28;20144;-76
2021/10/22 04:33:38;;;;;;;5.17;2.40;;;7.50;99.90;;;;;;5029691;28;20120;-76
2021/10/22 04:36:07;;;;;;;3.60;2.10;;;7.40;99.90;;;;;;5026985;28;20025;-77
2021/10/22 04:41:17;;;;;;;4.50;2.37;;;7.40;99.90;;;;;;5029394;28;20023;-76
2021/10/22 04:43:43;;;;;;;4.73;2.57;;;7.40;99.90;;;;;;5029020;28;20096;-76
2021/10/22 04:46:08;;;;;;;5.97;2.77;;;7.40;99.90;;;;;;5024509;28;20408;-76
2021/10/22 04:48:34;;;;;;;3.97;2.70;;;7.40;99.90;;;;;;5029435;28;20061;-76
2021/10/22 04:50:59;;;;;;;7.17;4.20;;;7.30;99.90;;;;;;5029617;28;20052;-77
2021/10/22 04:53:27;;;;;;;6.77;3.90;;;7.30;99.90;;;;;;5026730;28;20025;-76
2021/10/22 04:55:54;;;;;;;7.43;3.40;;;7.30;99.90;;;;;;5029288;28;20029;-76
2021/10/22 04:58:19;;;;;;;6.73;3.23;;;7.20;99.90;;;;;;5029066;28;20156;-76
2021/10/22 05:00:45;;;;;;;4.53;3.03;;;7.20;99.90;;;;;;5026611;28;20094;-76
2021/10/22 05:03:11;;;;;;;4.33;3.20;;;7.20;99.90;;;;;;5029180;28;20079;-76
2021/10/22 05:05:37;;;;;;;7.17;3.60;;;7.20;99.90;;;;;;5032600;28;20353;-76
2021/10/22 05:08:03;;;;;;;10.43;4.47;;;7.10;99.90;;;;;;5034874;28;20104;-76
2021/10/22 05:10:28;;;;;;;4.93;3.40;;;7.10;99.90;;;;;;5032901;28;20036;-76
2021/10/22 05:12:54;;;;;;;6.83;3.37;;;7.10;99.90;;;;;;5032756;28;20109;-76
2021/10/22 05:15:19;;;;;;;5.30;3.50;;;7.10;99.90;;;;;;5033747;28;20076;-76
2021/10/22 05:17:45;;;;;;;6.10;3.73;;;7.00;99.90;;;;;;5019554;28;20036;-76
2021/10/22 05:20:12;;;;;;;5.67;3.93;;;6.90;99.90;;;;;;5020582;28;20711;-76
2021/10/22 05:22:38;;;;;;;7.43;3.40;;;6.90;99.90;;;;;;5024971;28;20032;-76
2021/10/22 05:25:09;;;;;;;7.53;4.10;;;6.90;99.90;;;;;;5019408;28;20033;-76
2021/10/22 05:27:35;;;;;;;7.50;3.97;;;6.90;99.90;;;;;;5021146;28;20100;-76
2021/10/22 05:30:01;;;;;;;4.93;3.40;;;6.80;99.90;;;;;;5016548;28;20101;-76
2021/10/22 05:32:27;;;;;;;8.40;3.63;;;6.80;99.90;;;;;;5024407;28;20022;-76
2021/10/22 05:34:53;;;;;;;6.20;3.73;;;6.80;99.90;;;;;;5025027;28;20022;-76
2021/10/22 05:37:19;;;;;;;7.70;3.80;;;6.70;99.90;;;;;;5018737;28;20444;-74
2021/10/22 05:39:44;;;;;;;7.00;4.10;;;6.70;99.90;;;;;;5025847;28;20025;-76
2021/10/22 05:42:10;;;;;;;12.27;4.37;;;6.60;99.90;;;;;;5018865;28;20029;-74
2021/10/22 05:44:35;;;;;;;11.53;4.30;;;6.60;99.90;;;;;;5021115;28;20053;-76
2021/10/22 05:47:01;;;;;;;12.37;4.50;;;6.60;99.90;;;;;;5005332;28;20044;-75
2021/10/22 05:49:27;;;;;;;12.73;3.50;;;6.60;99.90;;;;;;5034396;28;20100;-75
2021/10/22 05:51:53;;;;;;;12.00;4.10;;;6.60;99.90;;;;;;5004723;28;20366;-75
2021/10/22 05:54:19;;;;;;;13.70;3.30;;;6.50;99.90;;;;;;5023798;28;20105;-75
2021/10/22 05:56:45;;;;;;;9.13;5.00;;;6.50;99.90;;;;;;5031064;28;20473;-75
2021/10/22 05:59:11;;;;;;;10.73;4.20;;;6.50;99.90;;;;;;5035063;28;20079;-74
2021/10/22 06:01:37;;;;;;;8.43;3.67;;;6.50;99.90;;;;;;5032383;28;20069;-75
2021/10/22 06:04:03;;;;;;;9.13;3.57;;;6.50;99.90;;;;;;5017292;28;20018;-75
2021/10/22 06:06:29;;;;;;;8.30;3.27;;;6.60;99.90;;;;;;5035127;28;20026;-75
2021/10/22 06:08:55;;;;;;;8.67;3.60;;;6.60;99.90;;;;;;5035238;28;20454;-75
2021/10/22 06:11:21;;;;;;;10.63;3.70;;;6.60;99.90;;;;;;5018250;28;20035;-75
2021/10/22 06:13:47;;;;;;;16.90;4.10;;;6.60;99.90;;;;;;5024330;28;20022;-75
2021/10/22 06:16:14;;;;;;;7.33;2.60;;;6.60;99.90;;;;;;5034376;28;20033;-75
2021/10/22 06:18:48;;;;;;;11.23;3.23;;;6.60;99.90;;;;;;5014032;28;20038;-75
2021/10/22 06:21:23;;;;;;;11.50;3.30;;;6.60;99.90;;;;;;5015070;28;20020;-75
2021/10/22 06:23:54;;;;;;;15.82;4.05;;;6.60;99.90;;;;;;5034447;28;20044;-75
2021/10/22 06:26:26;;;;;;;13.40;2.60;;;6.60;99.90;;;;;;5034625;28;20101;-75
2021/10/22 06:28:53;;;;;;;16.50;3.50;;;6.60;99.90;;;;;;5034740;28;20028;-75
2021/10/22 06:31:19;;;;;;;9.43;2.97;;;6.70;99.90;;;;;;5034396;28;20481;-75
2021/10/22 06:33:45;;;;;;;10.87;3.17;;;6.70;99.90;;;;;;5001788;28;20132;-75
2021/10/22 06:36:10;;;;;;;10.20;2.73;;;6.70;99.90;;;;;;5014569;28;20439;-75
2021/10/22 06:38:36;;;;;;;11.83;3.60;;;6.70;99.90;;;;;;5013042;28;20033;-75
2021/10/22 06:41:03;;;;;;;18.30;3.33;;;6.70;99.90;;;;;;5034323;28;20484;-75
2021/10/22 06:43:29;;;;;;;9.00;2.73;;;6.70;99.90;;;;;;5016576;28;20026;-75
2021/10/22 06:45:55;;;;;;;10.37;3.40;;;6.80;99.90;;;;;;5013355;28;20402;-75
2021/10/22 06:48:21;;;;;;;13.53;3.53;;;6.80;99.90;;;;;;5034492;28;20025;-75
2021/10/22 06:50:47;;;;;;;11.23;3.43;;;6.80;99.90;;;;;;5023410;28;20026;-76
2021/10/22 06:53:13;;;;;;;8.77;3.17;;;6.90;99.90;;;;;;5017350;28;20026;-74
2021/10/22 06:55:39;;;;;;;6.53;3.03;;;6.90;99.90;;;;;;5014240;28;20038;-75
2021/10/22 06:58:05;;;;;;;11.93;3.47;;;6.90;99.90;;;;;;5015951;28;20033;-74
2021/10/22 07:00:32;;;;;;;11.80;3.47;;;6.90;99.90;;;;;;5034598;28;20028;-74
2021/10/22 07:02:58;;;;;;;13.90;2.67;;;6.90;99.90;;;;;;5034497;28;20045;-74
2021/10/22 07:07:51;;;;;;;8.27;2.20;;;7.00;99.90;;;;;;5034450;28;20351;-74
2021/10/22 07:10:17;;;;;;;17.20;2.73;;;7.00;99.90;;;;;;5034571;28;20025;-74
2021/10/22 07:12:43;;;;;;;14.70;4.43;;;7.00;99.90;;;;;;5034212;28;20112;-74
2021/10/22 07:15:09;;;;;;;14.10;3.33;;;7.00;99.90;;;;;;5021410;28;20041;-74
2021/10/22 07:17:34;;;;;;;15.00;3.00;;;7.10;99.90;;;;;;5014688;28;20038;-74
2021/10/22 07:20:00;;;;;;;15.47;3.40;;;7.10;99.90;;;;;;5014694;28;20057;-74
2021/10/22 07:22:33;;;;;;;12.67;3.60;;;7.10;99.90;;;;;;5023332;28;20025;-74
2021/10/22 07:24:59;;;;;;;12.10;3.77;;;7.10;99.90;;;;;;5021767;28;20037;-74
2021/10/22 07:27:25;;;;;;;10.93;3.80;;;7.10;99.90;;;;;;5024465;28;20021;-75
2021/10/22 07:29:51;;;;;;;12.33;3.30;;;7.10;99.90;;;;;;5029640;28;20359;-75
2021/10/22 07:32:17;;;;;;;13.00;3.70;;;7.20;99.90;;;;;;5032321;28;20014;-75
2021/10/22 07:34:43;;;;;;;15.17;4.23;;;7.10;99.90;;;;;;5031895;28;20101;-75
2021/10/22 07:37:09;;;;;;;13.00;3.20;;;7.10;99.90;;;;;;5033354;28;20611;-77
2021/10/22 07:39:35;;;;;;;11.03;3.83;;;7.10;99.90;;;;;;5033460;28;20061;-76
2021/10/22 07:42:01;;;;;;;8.83;3.27;;;7.10;99.90;;;;;;5033630;28;20053;-76
2021/10/22 07:44:26;;;;;;;10.67;2.97;;;7.10;99.90;;;;;;5018843;28;20485;-76
2021/10/22 07:46:53;;;;;;;11.37;3.77;;;7.20;99.90;;;;;;5013571;28;20072;-76
2021/10/22 07:49:20;;;;;;;10.27;3.77;;;7.20;99.90;;;;;;4996234;28;20112;-74
2021/10/22 07:51:46;;;;;;;11.23;3.90;;;7.20;99.90;;;;;;5015085;28;20022;-74
2021/10/22 07:54:11;;;;;;;8.40;3.23;;;7.20;99.90;;;;;;5033842;28;20030;-74
2021/10/22 07:56:37;;;;;;;15.63;3.83;;;7.30;99.90;;;;;;5033561;28;20033;-74
2021/10/22 07:59:06;;;;;;;9.30;2.97;;;7.30;99.90;;;;;;5034220;28;20071;-76
2021/10/22 08:01:33;;;;;;;9.07;3.37;;;7.30;99.90;;;;;;5042581;28;20031;-76
2021/10/22 08:03:59;;;;;;;12.30;3.87;;;7.40;99.90;;;;;;5015784;28;20465;-76
2021/10/22 08:06:25;;;;;;;10.23;3.30;;;7.40;99.90;;;;;;5033466;28;20017;-76
2021/10/22 08:08:51;;;;;;;10.03;3.57;;;7.50;99.90;;;;;;5032924;28;20026;-74
2021/10/22 08:11:18;;;;;;;7.57;4.10;;;7.50;99.90;;;;;;5033630;28;20029;-74
2021/10/22 08:13:48;;;;;;;13.23;4.50;;;7.50;99.90;;;;;;5033490;28;20021;-74
2021/10/22 08:16:13;;;;;;;12.00;4.30;;;7.50;99.90;;;;;;5033210;28;20489;-74
2021/10/22 08:18:40;;;;;;;8.73;3.60;;;7.60;99.90;;;;;;5033357;28;20021;-74
2021/10/22 08:21:34;;;;;;;8.93;3.67;;;7.60;99.90;;;;;;5033673;28;20067;-74
2021/10/22 08:23:59;;;;;;;10.27;3.90;;;7.70;99.90;;;;;;5033026;28;20022;-74
2021/10/22 08:26:25;;;;;;;10.23;3.57;;;7.80;99.90;;;;;;5033039;28;20022;-74
2021/10/22 08:28:51;;;;;;;9.07;4.13;;;7.90;99.90;;;;;;5032920;28;20029;-74
2021/10/22 08:31:17;;;;;;;8.87;3.70;;;7.90;99.90;;;;;;5033088;28;20029;-74
2021/10/22 08:33:42;;;;;;;4.97;2.87;;;7.90;99.90;;;;;;5032944;28;20032;-76
2021/10/22 08:36:12;;;;;;;6.67;3.17;;;7.90;99.90;;;;;;5033220;28;20033;-76
2021/10/22 08:38:39;;;;;;;11.10;3.43;;;7.90;99.90;;;;;;5015135;28;20076;-76
2021/10/22 08:41:08;;;;;;;7.80;3.50;;;8.10;99.90;;;;;;5033139;28;20108;-76
2021/10/22 08:43:35;;;;;;;11.60;4.00;;;8.20;99.90;;;;;;5015149;28;20079;-76
2021/10/22 08:46:05;;;;;;;13.00;4.33;;;8.30;99.90;;;;;;5032628;28;20192;-76
2021/10/22 08:48:32;;;;;;;6.40;3.33;;;8.50;99.90;;;;;;5024383;28;20030;-76
2021/10/22 08:50:58;;;;;;;7.93;3.73;;;8.70;99.90;;;;;;5011363;28;20139;-77
2021/10/22 08:53:25;;;;;;;7.93;3.83;;;8.90;99.90;;;;;;5029949;28;20104;-77
2021/10/22 08:55:51;;;;;;;7.47;3.73;;;8.90;99.90;;;;;;5028882;28;20032;-77
2021/10/22 08:58:19;;;;;;;6.67;3.20;;;9.00;99.90;;;;;;5030676;28;20076;-77
2021/10/22 09:00:46;;;;;;;9.47;4.30;;;8.90;99.90;;;;;;5028669;28;20033;-77
2021/10/22 09:03:20;;;;;;;8.23;3.40;;;8.80;99.90;;;;;;5030798;28;20028;-78
2021/10/22 09:05:57;;;;;;;9.50;3.40;;;8.80;99.90;;;;;;5013511;28;20022;-78
2021/10/22 09:08:32;;;;;;;5.77;3.30;;;8.80;99.90;;;;;;5012205;28;20421;-77
2021/10/22 09:10:58;;;;;;;8.27;3.83;;;8.70;99.90;;;;;;5007723;28;20107;-77
2021/10/22 09:13:28;;;;;;;5.93;3.40;;;8.70;99.90;;;;;;5010433;28;20096;-77
2021/10/22 09:15:56;;;;;;;9.60;3.57;;;8.80;99.90;;;;;;5010445;28;20025;-76
2021/10/22 09:18:25;;;;;;;11.80;3.20;;;8.90;99.90;;;;;;5014234;28;20685;-76
2021/10/22 09:20:53;;;;;;;4.97;2.13;;;8.90;99.90;;;;;;5036638;28;20458;-76
2021/10/22 09:23:32;;;;;;;5.47;2.50;;;9.00;99.90;;;;;;5036421;28;20045;-76
2021/10/22 09:26:28;;;;;;;6.77;2.73;;;8.90;99.90;;;;;;5016859;28;20505;-77
2021/10/22 09:28:57;;;;;;;8.23;2.22;;;8.80;99.90;;;;;;5016782;28;20124;-77
2021/10/22 09:31:23;;;;;;;6.53;2.30;;;8.80;99.90;;;;;;5016587;28;20077;-76
2021/10/22 09:34:01;;;;;;;7.17;2.33;;;8.70;99.90;;;;;;4998630;28;20036;-76
2021/10/22 09:36:37;;;;;;;6.30;2.60;;;8.80;99.90;;;;;;5016498;28;20390;-76
2021/10/22 09:39:05;;;;;;;7.33;2.70;;;8.80;99.90;;;;;;5016270;28;20493;-74
2021/10/22 09:41:30;;;;;;;5.83;2.70;;;8.90;99.90;;;;;;5013112;28;20491;-77
2021/10/22 09:43:56;;;;;;;5.37;2.60;;;8.90;99.90;;;;;;5023134;28;20029;-77
2021/10/22 09:46:23;;;;;;;10.93;2.57;;;8.90;99.90;;;;;;5035354;28;20382;-76
2021/10/22 09:48:56;;;;;;;9.23;2.70;;;8.80;99.90;;;;;;5034645;28;20025;-75
2021/10/22 09:51:34;;;;;;;8.17;3.00;;;8.80;99.90;;;;;;5018603;28;20088;-74
2021/10/22 09:54:14;;;;;;;5.27;2.30;;;8.90;99.90;;;;;;5016448;28;20080;-77
2021/10/22 09:56:49;;;;;;;6.00;2.43;;;9.00;99.90;;;;;;5013787;28;20029;-78
2021/10/22 09:59:25;;;;;;;;;;;9.10;99.90;;;;;;5015539;28;20022;-78
2021/10/22 10:01:54;;;;;;;4.40;2.33;;;9.10;99.90;;;;;;4998446;28;19996;-74
2021/10/22 10:04:21;;;;;;;7.07;2.60;;;9.00;99.90;;;;;;5016145;28;20454;-74
2021/10/22 10:06:47;;;;;;;7.87;3.33;;;8.90;99.90;;;;;;5016393;28;20096;-74
2021/10/22 10:09:13;;;;;;;4.40;2.57;;;9.00;99.90;;;;;;5018189;28;20033;-77
2021/10/22 10:11:40;;;;;;;6.87;2.33;;;9.10;99.90;;;;;;5043204;28;20129;-78
2021/10/22 10:14:07;;;;;;;4.43;2.43;;;9.20;99.90;;;;;;5038547;28;20469;-77
2021/10/22 10:16:34;;;;;;;4.73;2.03;;;9.20;99.90;;;;;;5043852;28;20033;-77
2021/10/22 10:19:19;;;;;;;5.47;2.40;;;9.40;99.90;;;;;;5045059;28;20024;-76
2021/10/22 10:21:52;;;;;;;7.05;2.50;;;9.40;99.90;;;;;;5055251;28;20021;-76
2021/10/22 10:24:21;;;;;;;5.27;2.27;;;9.50;99.90;;;;;;5045985;28;20041;-77
2021/10/22 10:27:17;;;;;;;6.40;2.50;;;9.60;99.90;;;;;;5044542;28;20017;-74
2021/10/22 10:30:13;;;;;;;7.10;2.38;;;9.70;99.90;;;;;;5032445;28;20184;-76
2021/10/22 10:32:41;;;;;;;7.30;2.30;;;9.70;99.90;;;;;;5027911;28;20033;-76
2021/10/22 10:35:14;;;;;;;7.17;2.70;;;9.70;99.90;;;;;;5034984;28;20021;-76
2021/10/22 10:37:41;;;;;;;6.77;2.43;;;9.70;99.90;;;;;;5019931;28;20108;-76
2021/10/22 10:40:12;;;;;;;12.50;2.37;;;9.60;99.90;;;;;;5015256;28;20034;-77
2021/10/22 10:42:46;;;;;;;6.00;2.30;;;9.60;99.90;;;;;;5015170;28;20018;-77
2021/10/22 10:45:21;;;;;;;8.53;2.40;;;9.50;99.90;;;;;;5014958;28;20359;-77
2021/10/22 10:47:53;;;;;;;5.13;2.20;;;9.40;99.90;;;;;;5014956;28;20125;-77
2021/10/22 10:50:55;;;;;;;5.53;2.30;;;9.40;99.90;;;;;;4997350;28;20034;-76
2021/10/22 10:53:33;;;;;;;9.17;2.53;;;9.40;99.90;;;;;;5014938;28;20535;-76
2021/10/22 10:56:00;;;;;;;8.57;2.47;;;9.40;99.90;;;;;;5014823;28;20037;-76
2021/10/22 10:58:26;;;;;;;9.83;2.97;;;9.60;99.90;;;;;;5032240;28;20036;-77
2021/10/22 11:01:07;;;;;;;9.20;2.20;;;9.60;99.90;;;;;;5034525;28;20022;-77
2021/10/22 11:03:46;;;;;;;9.40;2.27;;;9.70;99.90;;;;;;5003367;28;20076;-77
2021/10/22 11:06:38;;;;;;;8.90;2.40;;;9.70;99.90;;;;;;5026775;28;20104;-77
2021/10/22 11:09:05;;;;;;;7.73;2.37;;;9.70;99.90;;;;;;5002016;28;20045;-77
2021/10/22 11:11:33;;;;;;;9.37;3.13;;;9.60;99.90;;;;;;5018245;28;20032;-77
2021/10/22 11:14:05;;;;;;;6.60;2.20;;;9.60;99.90;;;;;;5017681;28;20028;-77
2021/10/22 11:16:38;;;;;;;8.47;2.30;;;9.60;99.90;;;;;;5019726;28;20026;-77
2021/10/22 11:19:05;;;;;;;5.53;1.90;;;9.60;99.90;;;;;;5019512;28;20029;-77
2021/10/22 11:21:34;;;;;;;10.80;2.97;;;9.60;99.90;;;;;;5015591;28;20112;-77
2021/10/22 11:24:02;;;;;;;6.73;2.30;;;9.60;99.90;;;;;;5019057;28;20545;-77
2021/10/22 11:26:28;;;;;;;5.13;2.20;;;9.60;99.90;;;;;;5016888;28;20504;-77
2021/10/22 11:28:57;;;;;;;7.30;2.20;;;9.60;99.90;;;;;;5019357;28;20029;-76
2021/10/22 11:31:42;;;;;;;6.23;2.27;;;9.70;99.90;;;;;;5018542;28;20118;-77
2021/10/22 11:34:17;;;;;;;7.63;2.40;;;9.80;99.90;;;;;;5021205;28;20041;-77
2021/10/22 11:37:07;;;;;;;6.95;2.50;;;9.70;99.90;;;;;;5017757;28;20121;-77
2021/10/22 11:39:39;;;;;;;7.00;1.90;;;9.70;99.90;;;;;;5013143;28;20029;-75
2021/10/22 11:42:32;;;;;;;8.53;2.50;;;9.80;99.90;;;;;;5029355;28;20538;-76
2021/10/22 11:45:11;;;;;;;10.77;2.80;;;9.90;99.90;;;;;;5006997;28;20041;-77
2021/10/22 11:47:41;;;;;;;9.43;2.30;;;10.20;99.90;;;;;;5019394;28;20079;-77
2021/10/22 11:50:28;;;;;;;8.27;3.03;;;10.30;99.90;;;;;;5013855;28;20030;-77
2021/10/22 11:53:06;;;;;;;6.57;1.93;;;10.50;99.90;;;;;;5028257;28;20041;-77
2021/10/22 11:55:32;;;;;;;7.37;2.30;;;10.50;99.90;;;;;;5013728;28;20018;-77
2021/10/22 11:58:04;;;;;;;8.83;1.73;;;10.70;99.90;;;;;;5021306;28;20041;-78
2021/10/22 12:00:30;;;;;;;6.60;1.83;;;10.60;99.90;;;;;;5013319;28;20429;-77
2021/10/22 12:02:56;;;;;;;13.27;2.50;;;10.70;99.90;;;;;;5021288;28;20029;-77
2021/10/22 12:05:22;;;;;;;9.53;2.67;;;10.60;99.90;;;;;;5026124;28;20334;-76
2021/10/22 12:07:51;;;;;;;9.83;2.47;;;10.60;99.90;;;;;;5023964;28;20481;-75
2021/10/22 12:10:17;;;;;;;9.73;2.33;;;10.50;99.90;;;;;;5025469;28;20026;-75
2021/10/22 12:12:52;;;;;;;8.77;2.27;;;10.50;99.90;;;;;;5028702;28;20057;-75
2021/10/22 12:15:24;;;;;;;10.65;2.70;;;10.40;99.90;;;;;;5019886;28;20180;-75
2021/10/22 12:17:54;;;;;;;8.83;2.50;;;10.20;99.90;;;;;;5016720;28;20089;-75
2021/10/22 12:20:20;;;;;;;10.57;2.40;;;10.10;99.90;;;;;;5025567;28;20076;-75
2021/10/22 12:22:54;;;;;;;6.83;2.30;;;10.10;99.90;;;;;;5025078;28;20477;-75
2021/10/22 12:25:21;;;;;;;6.57;2.10;;;10.10;99.90;;;;;;5009802;28;20535;-74
2021/10/22 12:27:51;;;;;;;11.47;2.20;;;10.20;99.90;;;;;;5030004;28;20029;-74
2021/10/22 12:30:21;;;;;;;10.87;2.63;;;10.10;99.90;;;;;;5026481;28;20029;-74
2021/10/22 12:32:49;;;;;;;5.40;1.97;;;10.10;99.90;;;;;;5029835;28;20025;-73
2021/10/22 12:35:18;;;;;;;10.20;3.07;;;10.10;99.90;;;;;;5029166;28;20038;-74
2021/10/22 12:38:06;;;;;;;12.67;2.83;;;10.10;99.90;;;;;;5011616;28;20540;-74
2021/10/22 12:40:37;;;;;;;13.63;2.73;;;10.20;99.90;;;;;;5029883;28;20026;-74
2021/10/22 12:43:25;;;;;;;9.87;2.83;;;10.10;99.90;;;;;;5029774;28;20452;-74
2021/10/22 12:46:06;;;;;;;10.07;2.73;;;10.00;99.90;;;;;;5020094;28;20037;-74
2021/10/22 12:48:34;;;;;;;7.13;2.20;;;9.90;99.90;;;;;;5010528;28;20390;-74
2021/10/22 12:51:09;;;;;;;8.30;2.07;;;9.90;99.90;;;;;;5023664;28;20681;-74
2021/10/22 12:53:42;;;;;;;11.15;3.05;;;9.80;99.90;;;;;;5019405;28;20444;-76
2021/10/22 12:56:37;;;;;;;9.73;2.10;;;9.90;99.90;;;;;;5036627;28;20041;-77
2021/10/22 12:59:06;;;;;;;7.70;2.03;;;9.90;99.90;;;;;;5017220;28;20037;-76
2021/10/22 13:01:40;;;;;;;7.15;2.30;;;10.00;99.90;;;;;;5023143;28;20026;-76
2021/10/22 13:04:12;;;;;;;9.43;2.40;;;10.10;99.90;;;;;;5026060;28;20361;-76